Time;durP1;ratioP1;P1;durP2;ratioP2;P2;SDS_P1;SDS_P2;PMS_P1;PMS_P2;Temp;Humidity;BMP_temperature;BMP_pressure;BME280_temperature;BME280_humidity;BME280_pressure;Samples;Min_cycle;Max_cycle;Signal;HPM_P1;HPM_P2
2023/07/08 00:01:35;;;;;;;5.45;2.40;;;19.60;51.00;;;;;;5016224;28;20457;-59
2023/07/08 00:04:03;;;;;;;4.07;1.95;;;19.60;50.50;;;;;;5014193;28;20441;-59
2023/07/08 00:06:31;;;;;;;4.95;2.05;;;19.60;50.80;;;;;;5013367;28;20444;-59
2023/07/08 00:08:58;;;;;;;3.53;2.20;;;19.60;53.30;;;;;;5016570;28;20433;-59
2023/07/08 00:11:26;;;;;;;5.35;2.30;;;19.50;51.10;;;;;;5015705;28;20526;-59
2023/07/08 00:13:59;;;;;;;4.07;1.83;;;19.50;50.90;;;;;;5014299;28;20520;-59
2023/07/08 00:16:25;;;;;;;2.55;1.85;;;19.50;51.40;;;;;;5015371;28;20453;-60
2023/07/08 00:18:54;;;;;;;2.30;1.95;;;19.50;51.80;;;;;;5015102;28;20443;-59
2023/07/08 00:21:28;;;;;;;4.13;1.90;;;19.50;50.50;;;;;;5015242;28;20510;-59
2023/07/08 00:24:05;;;;;;;1.83;1.63;;;19.40;50.50;;;;;;5015984;28;20487;-59
2023/07/08 00:26:38;;;;;;;3.58;1.95;;;19.40;59.50;;;;;;5015504;28;20558;-59
2023/07/08 00:29:13;;;;;;;1.40;1.30;;;19.30;50.30;;;;;;5019101;28;20537;-60
2023/07/08 00:31:43;;;;;;;4.10;1.70;;;19.20;51.00;;;;;;5018807;28;20977;-60
2023/07/08 00:34:09;;;;;;;4.43;1.77;;;19.10;50.50;;;;;;5017386;28;20902;-60
2023/07/08 00:36:41;;;;;;;3.70;2.00;;;19.10;50.00;;;;;;5017679;28;20442;-60
2023/07/08 00:39:14;;;;;;;2.83;1.75;;;19.10;50.90;;;;;;5016241;28;20455;-59
2023/07/08 00:41:43;;;;;;;4.50;2.08;;;19.00;51.00;;;;;;5007473;28;20515;-59
2023/07/08 00:44:11;;;;;;;2.13;1.90;;;19.10;51.10;;;;;;5015768;28;20846;-60
2023/07/08 00:46:49;;;;;;;2.00;1.90;;;19.00;53.70;;;;;;5017012;28;20549;-60
2023/07/08 00:49:52;;;;;;;1.95;1.67;;;19.00;51.50;;;;;;5015203;28;21491;-59
2023/07/08 00:52:27;;;;;;;3.05;1.58;;;19.00;52.10;;;;;;5018633;28;20439;-59
2023/07/08 00:55:08;;;;;;;1.60;1.52;;;19.10;51.90;;;;;;5015710;28;20461;-59
2023/07/08 00:57:40;;;;;;;1.43;1.33;;;19.10;51.70;;;;;;5007575;28;20562;-59
2023/07/08 01:00:16;;;;;;;5.87;1.70;;;19.20;52.10;;;;;;5018886;28;20464;-59
2023/07/08 01:02:52;;;;;;;3.55;1.98;;;19.20;52.10;;;;;;5016452;28;20426;-59
2023/07/08 01:05:23;;;;;;;2.45;1.60;;;19.30;52.50;;;;;;5019767;28;20441;-59
2023/07/08 01:07:55;;;;;;;2.80;1.70;;;19.40;52.60;;;;;;5019083;28;21392;-59
2023/07/08 01:10:30;;;;;;;2.70;1.98;;;19.40;52.00;;;;;;5017799;28;20443;-59
2023/07/08 01:13:02;;;;;;;1.30;1.20;;;19.40;52.80;;;;;;5018335;28;20427;-60
2023/07/08 01:15:34;;;;;;;2.08;1.55;;;19.40;51.90;;;;;;5007568;28;20516;-59
2023/07/08 01:18:05;;;;;;;1.98;1.60;;;19.40;51.30;;;;;;5020543;28;20512;-59
2023/07/08 01:20:32;;;;;;;1.77;1.67;;;19.20;50.90;;;;;;5018322;28;20446;-59
2023/07/08 01:22:59;;;;;;;1.13;1.13;;;19.20;51.10;;;;;;5018522;28;20478;-59
2023/07/08 01:25:26;;;;;;;1.60;1.47;;;19.20;51.40;;;;;;5016856;28;20502;-59
2023/07/08 01:27:55;;;;;;;3.30;1.67;;;19.10;65.70;;;;;;5003596;28;20592;-59
2023/07/08 01:30:22;;;;;;;2.10;1.45;;;19.10;51.00;;;;;;5016166;28;20435;-59
2023/07/08 01:32:54;;;;;;;1.80;1.20;;;19.10;53.40;;;;;;5017381;28;20439;-59
2023/07/08 01:35:22;;;;;;;2.38;1.60;;;19.10;51.10;;;;;;5007250;28;20439;-59
2023/07/08 01:37:56;;;;;;;1.27;1.17;;;19.10;51.40;;;;;;5016817;28;20824;-59
2023/07/08 01:40:28;;;;;;;1.92;1.50;;;19.10;51.30;;;;;;5020168;28;20423;-59
2023/07/08 01:42:56;;;;;;;1.95;1.77;;;19.10;51.30;;;;;;5017220;28;20963;-59
2023/07/08 01:45:27;;;;;;;2.75;1.55;;;19.10;51.30;;;;;;5019892;28;20550;-59
2023/07/08 01:48:05;;;;;;;1.83;1.50;;;19.10;52.40;;;;;;5021153;28;20459;-59
2023/07/08 01:50:34;;;;;;;1.70;1.60;;;19.10;51.60;;;;;;5017601;28;20479;-60
2023/07/08 01:53:06;;;;;;;2.97;1.53;;;19.10;51.50;;;;;;5017014;28;20774;-60
2023/07/08 01:55:33;;;;;;;5.70;1.63;;;19.00;51.20;;;;;;5010565;28;20455;-59
2023/07/08 01:58:00;;;;;;;2.83;2.03;;;18.90;51.70;;;;;;5019551;28;20525;-59
2023/07/08 02:00:26;;;;;;;2.22;1.45;;;18.90;50.80;;;;;;5018535;28;20779;-60
2023/07/08 02:02:53;;;;;;;1.87;1.43;;;18.90;51.00;;;;;;5014288;28;22038;-60
2023/07/08 02:05:20;;;;;;;1.95;1.63;;;18.70;50.40;;;;;;5015124;28;20444;-60
2023/07/08 02:07:47;;;;;;;1.60;1.40;;;18.70;50.60;;;;;;5016062;28;20439;-60
2023/07/08 02:10:14;;;;;;;1.70;1.50;;;18.60;51.80;;;;;;5019078;28;20528;-60
2023/07/08 02:12:40;;;;;;;3.35;1.80;;;18.60;50.60;;;;;;5018874;28;20453;-60
2023/07/08 02:15:10;;;;;;;1.60;1.35;;;18.50;51.30;;;;;;5018318;28;21004;-60
2023/07/08 02:17:37;;;;;;;2.35;1.58;;;18.50;50.90;;;;;;5017717;28;20442;-60
2023/07/08 02:20:04;;;;;;;1.92;1.55;;;18.40;50.80;;;;;;5017313;28;20463;-59
2023/07/08 02:22:31;;;;;;;1.45;1.35;;;18.30;50.50;;;;;;5017567;28;20516;-59
2023/07/08 02:24:58;;;;;;;1.20;1.17;;;18.20;50.50;;;;;;5015211;28;20523;-60
2023/07/08 02:27:25;;;;;;;2.33;1.42;;;18.20;50.40;;;;;;5017495;28;20434;-60
2023/07/08 02:29:51;;;;;;;1.77;1.52;;;18.20;51.40;;;;;;5019656;28;20509;-60
2023/07/08 02:32:18;;;;;;;1.63;1.53;;;18.30;51.40;;;;;;5017095;28;20436;-60
2023/07/08 02:34:45;;;;;;;1.85;1.58;;;18.20;52.30;;;;;;5019244;28;20467;-60
2023/07/08 02:37:15;;;;;;;4.03;1.67;;;18.20;52.50;;;;;;5017420;28;20522;-60
2023/07/08 02:39:43;;;;;;;2.50;1.40;;;18.20;53.30;;;;;;5012536;28;20526;-60
2023/07/08 02:42:12;;;;;;;2.58;1.60;;;18.10;52.90;;;;;;5015651;28;21086;-60
2023/07/08 02:44:39;;;;;;;2.55;1.45;;;18.10;53.10;;;;;;5015155;28;20431;-60
2023/07/08 02:47:06;;;;;;;1.90;1.40;;;18.10;53.70;;;;;;5018544;28;21030;-59
2023/07/08 02:49:32;;;;;;;2.42;1.48;;;18.00;54.20;;;;;;5016482;28;21069;-60
2023/07/08 02:52:00;;;;;;;3.95;1.58;;;17.90;54.30;;;;;;5016083;28;20457;-60
2023/07/08 02:54:27;;;;;;;3.10;1.65;;;17.80;55.00;;;;;;5016845;28;20587;-59
2023/07/08 02:56:53;;;;;;;3.10;1.88;;;17.80;56.30;;;;;;5016148;28;20517;-59
2023/07/08 02:59:20;;;;;;;1.75;1.35;;;17.60;56.50;;;;;;5017397;28;20539;-60
2023/07/08 03:01:47;;;;;;;1.60;1.50;;;17.50;57.70;;;;;;5015976;28;20514;-61
2023/07/08 03:04:14;;;;;;;1.70;1.42;;;17.50;60.60;;;;;;5016390;28;20439;-60
2023/07/08 03:06:45;;;;;;;1.92;1.40;;;17.40;62.50;;;;;;5013501;28;20528;-59
2023/07/08 03:09:14;;;;;;;2.03;1.77;;;17.40;63.90;;;;;;5017308;28;21014;-60
2023/07/08 03:11:44;;;;;;;2.28;1.85;;;17.40;65.10;;;;;;5015220;28;20537;-60
2023/07/08 03:14:11;;;;;;;2.25;1.55;;;17.40;68.80;;;;;;5015522;28;20552;-60
2023/07/08 03:16:38;;;;;;;2.95;1.27;;;17.40;69.70;;;;;;5014740;28;20457;-60
2023/07/08 03:19:05;;;;;;;2.15;1.52;;;17.40;71.20;;;;;;5016401;28;20431;-60
2023/07/08 03:21:32;;;;;;;1.95;1.55;;;17.40;74.90;;;;;;5014692;28;20434;-60
2023/07/08 03:23:58;;;;;;;1.75;1.65;;;17.40;74.70;;;;;;5014700;28;20431;-60
2023/07/08 03:26:26;;;;;;;2.40;1.52;;;17.40;89.20;;;;;;5016596;28;20474;-60
2023/07/08 03:28:58;;;;;;;6.85;1.73;;;17.50;73.30;;;;;;5016942;28;20469;-60
2023/07/08 03:31:24;;;;;;;1.85;1.42;;;17.60;72.80;;;;;;5012542;28;20442;-60
2023/07/08 03:33:51;;;;;;;3.83;1.20;;;17.60;71.80;;;;;;5013041;28;20439;-59
2023/07/08 03:36:25;;;;;;;1.60;1.50;;;17.70;71.10;;;;;;5007465;28;20935;-60
2023/07/08 03:38:55;;;;;;;2.08;1.30;;;17.80;71.70;;;;;;5016625;28;20447;-60
2023/07/08 03:41:22;;;;;;;2.05;1.63;;;17.80;70.40;;;;;;5015373;28;20435;-60
2023/07/08 03:43:52;;;;;;;1.80;1.38;;;17.80;69.50;;;;;;5015893;28;20821;-60
2023/07/08 03:46:21;;;;;;;1.35;1.20;;;17.90;70.70;;;;;;5000268;28;20586;-60
2023/07/08 03:48:48;;;;;;;1.42;1.33;;;18.00;69.50;;;;;;5018368;28;20514;-59
2023/07/08 03:51:42;;;;;;;2.08;1.50;;;18.00;68.50;;;;;;5013073;28;20429;-59
2023/07/08 03:54:18;;;;;;;3.83;1.85;;;18.10;68.00;;;;;;5016078;28;20425;-60
2023/07/08 03:56:44;;;;;;;2.40;1.40;;;18.20;66.80;;;;;;5018049;28;20466;-60
2023/07/08 03:59:11;;;;;;;1.92;1.30;;;18.30;65.70;;;;;;5014861;28;20431;-59
2023/07/08 04:01:40;;;;;;;1.38;1.30;;;18.40;65.30;;;;;;5013656;28;20435;-59
2023/07/08 04:04:14;;;;;;;2.75;1.20;;;18.50;65.40;;;;;;5018200;28;20556;-60
2023/07/08 04:06:41;;;;;;;1.42;1.33;;;18.60;64.70;;;;;;5018663;28;20423;-60
2023/07/08 04:09:08;;;;;;;2.25;1.38;;;18.70;64.60;;;;;;5016953;28;20431;-59
2023/07/08 04:11:35;;;;;;;1.67;1.58;;;18.80;63.80;;;;;;5015820;28;20619;-60
2023/07/08 04:14:05;;;;;;;3.03;1.80;;;18.90;64.00;;;;;;5013273;28;21302;-59
2023/07/08 04:16:46;;;;;;;1.40;1.30;;;18.90;63.90;;;;;;5017402;28;20842;-60
2023/07/08 04:19:14;;;;;;;1.98;1.73;;;19.10;62.90;;;;;;5019914;28;20433;-60
2023/07/08 04:21:42;;;;;;;1.58;1.45;;;19.20;62.80;;;;;;5005257;28;21200;-60
2023/07/08 04:24:14;;;;;;;1.90;1.35;;;19.20;62.40;;;;;;5020837;28;20481;-60
2023/07/08 04:26:41;;;;;;;2.40;1.60;;;19.30;62.10;;;;;;5016921;28;20488;-60
2023/07/08 04:29:16;;;;;;;2.58;1.52;;;19.30;62.50;;;;;;5015072;28;20442;-60
2023/07/08 04:31:45;;;;;;;5.55;1.55;;;19.40;62.10;;;;;;4996382;28;20507;-60
2023/07/08 04:34:12;;;;;;;1.65;1.40;;;19.50;61.20;;;;;;5019801;28;20438;-60
2023/07/08 04:36:38;;;;;;;1.90;1.48;;;19.60;61.30;;;;;;5020915;28;20474;-60
2023/07/08 04:39:07;;;;;;;1.67;1.55;;;19.60;61.10;;;;;;5017072;28;20936;-60
2023/07/08 04:41:40;;;;;;;2.65;1.40;;;19.70;60.20;;;;;;5016219;28;20983;-60
2023/07/08 04:44:10;;;;;;;1.48;1.38;;;19.70;59.50;;;;;;5018672;28;22254;-60
2023/07/08 04:46:42;;;;;;;2.05;1.55;;;19.80;59.80;;;;;;5010129;28;20434;-60
2023/07/08 04:49:10;;;;;;;1.40;1.30;;;19.80;59.10;;;;;;5014541;28;20529;-60
2023/07/08 04:51:38;;;;;;;1.38;1.27;;;19.90;59.40;;;;;;5018668;28;20587;-60
2023/07/08 04:54:07;;;;;;;1.47;1.23;;;20.10;60.20;;;;;;5002521;28;20960;-60
2023/07/08 04:56:40;;;;;;;1.27;0.98;;;20.20;59.90;;;;;;5017345;28;20440;-60
2023/07/08 04:59:13;;;;;;;4.13;1.50;;;20.30;59.70;;;;;;5003526;28;20562;-59
2023/07/08 05:01:40;;;;;;;1.57;1.47;;;20.40;60.00;;;;;;5010343;28;20450;-60
2023/07/08 05:04:09;;;;;;;2.00;1.20;;;20.50;59.90;;;;;;5015372;28;20445;-60
2023/07/08 05:06:36;;;;;;;3.20;1.50;;;20.60;60.30;;;;;;5015138;28;20988;-60
2023/07/08 05:09:07;;;;;;;2.90;1.47;;;20.70;59.90;;;;;;5016595;28;20806;-60
2023/07/08 05:11:35;;;;;;;2.30;1.40;;;20.70;59.30;;;;;;5008167;28;20434;-59
2023/07/08 05:14:03;;;;;;;1.58;1.48;;;20.70;59.30;;;;;;5014125;28;20510;-60
2023/07/08 05:16:35;;;;;;;3.42;1.67;;;20.70;59.70;;;;;;5010644;28;20431;-60
2023/07/08 05:19:03;;;;;;;3.07;1.57;;;20.70;59.30;;;;;;5013746;28;20541;-60
2023/07/08 05:21:33;;;;;;;4.20;1.60;;;20.80;60.50;;;;;;5015436;28;20435;-59
2023/07/08 05:24:03;;;;;;;1.27;1.25;;;21.00;60.00;;;;;;5013003;28;20510;-60
2023/07/08 05:26:30;;;;;;;2.05;1.25;;;21.10;60.40;;;;;;5014657;28;21221;-60
2023/07/08 05:28:57;;;;;;;1.40;1.30;;;21.30;61.20;;;;;;5016109;28;21185;-60
2023/07/08 05:31:24;;;;;;;2.55;1.45;;;21.60;62.70;;;;;;5013932;28;21287;-60
2023/07/08 05:34:10;;;;;;;2.57;1.67;;;22.00;64.00;;;;;;5014262;28;20417;-60
2023/07/08 05:36:38;;;;;;;1.80;1.50;;;22.50;66.70;;;;;;5015275;28;20591;-60
2023/07/08 05:39:05;;;;;;;3.10;1.38;;;22.90;67.30;;;;;;5015791;28;20497;-60
2023/07/08 05:41:32;;;;;;;2.10;1.48;;;22.90;67.10;;;;;;5010187;28;20435;-60
2023/07/08 05:43:59;;;;;;;2.53;1.30;;;22.90;66.00;;;;;;5015558;28;20434;-60
2023/07/08 05:46:26;;;;;;;1.70;1.60;;;22.90;65.10;;;;;;5013072;28;20471;-60
2023/07/08 05:48:53;;;;;;;1.57;1.10;;;22.90;64.60;;;;;;5018314;28;20439;-60
2023/07/08 05:51:26;;;;;;;1.48;1.38;;;22.90;65.00;;;;;;5013215;28;20442;-60
2023/07/08 05:53:53;;;;;;;1.35;1.25;;;23.20;66.20;;;;;;5012413;28;20889;-60
2023/07/08 05:56:20;;;;;;;2.10;1.20;;;23.50;68.80;;;;;;5011835;28;20524;-61
2023/07/08 05:58:47;;;;;;;1.77;1.20;;;24.30;71.50;;;;;;5017211;28;20444;-60
2023/07/08 06:01:13;;;;;;;1.55;1.30;;;24.90;74.10;;;;;;5016922;28;20429;-61
2023/07/08 06:03:40;;;;;;;1.48;1.38;;;25.00;74.20;;;;;;5016725;28;20439;-60
2023/07/08 06:06:07;;;;;;;1.40;1.30;;;25.10;73.90;;;;;;5018183;28;20520;-60
2023/07/08 06:08:35;;;;;;;1.38;1.27;;;24.90;72.50;;;;;;5015410;28;20458;-60
2023/07/08 06:11:04;;;;;;;1.30;1.30;;;25.00;71.50;;;;;;5017707;28;20437;-60
2023/07/08 06:13:31;;;;;;;1.65;1.55;;;24.90;71.20;;;;;;5007695;28;20434;-61
2023/07/08 06:15:58;;;;;;;4.40;1.33;;;24.90;71.00;;;;;;5014024;28;20442;-60
2023/07/08 06:18:25;;;;;;;1.60;1.50;;;24.70;69.40;;;;;;5013614;28;20433;-60
2023/07/08 06:20:57;;;;;;;1.65;1.30;;;24.50;68.20;;;;;;5013564;28;20438;-61
2023/07/08 06:23:25;;;;;;;1.33;1.17;;;24.40;67.20;;;;;;5012591;28;21164;-60
2023/07/08 06:25:52;;;;;;;1.35;1.15;;;24.20;65.80;;;;;;5016523;28;20807;-60
2023/07/08 06:28:20;;;;;;;1.30;1.20;;;24.20;66.20;;;;;;5016237;28;20514;-60
2023/07/08 06:30:47;;;;;;;1.63;1.33;;;24.10;67.40;;;;;;5013742;28;20438;-60
2023/07/08 06:33:14;;;;;;;3.50;1.73;;;24.10;65.30;;;;;;5013925;28;20427;-60
2023/07/08 06:35:41;;;;;;;1.75;1.55;;;23.90;65.00;;;;;;5012851;28;20439;-61
2023/07/08 06:38:08;;;;;;;1.58;1.38;;;23.70;63.20;;;;;;5013355;28;20434;-60
2023/07/08 06:40:38;;;;;;;1.52;1.30;;;23.70;63.20;;;;;;5001465;28;20434;-60
2023/07/08 06:43:08;;;;;;;1.77;1.10;;;23.80;63.30;;;;;;5010501;28;20530;-60
2023/07/08 06:45:34;;;;;;;2.72;1.55;;;23.80;64.10;;;;;;5013104;28;20429;-60
2023/07/08 06:48:05;;;;;;;2.05;1.52;;;23.80;63.90;;;;;;5012075;28;20497;-60
2023/07/08 06:50:32;;;;;;;1.40;1.17;;;23.80;64.10;;;;;;4999532;28;20437;-60
2023/07/08 06:52:59;;;;;;;2.20;1.60;;;24.00;69.40;;;;;;5012345;28;20445;-61
2023/07/08 06:55:26;;;;;;;1.58;1.48;;;24.10;65.80;;;;;;5013008;28;20523;-60
2023/07/08 06:57:53;;;;;;;2.03;1.58;;;24.80;70.40;;;;;;5014980;28;20430;-60
2023/07/08 07:00:19;;;;;;;2.20;1.52;;;26.30;77.30;;;;;;5012083;28;20522;-61
2023/07/08 07:02:46;;;;;;;1.80;1.70;;;27.50;84.00;;;;;;5002277;28;20435;-61
2023/07/08 07:05:13;;;;;;;1.50;1.40;;;28.80;90.00;;;;;;5010102;28;20435;-62
2023/07/08 07:07:41;;;;;;;3.58;1.55;;;29.80;91.70;;;;;;5012270;28;20435;-61
2023/07/08 07:10:08;;;;;;;1.65;1.45;;;30.60;93.60;;;;;;5011690;28;20462;-62
2023/07/08 07:12:36;;;;;;;1.50;1.40;;;31.50;95.10;;;;;;5010829;28;20443;-61
2023/07/08 07:15:03;;;;;;;2.05;1.50;;;32.10;96.40;;;;;;5012791;28;20431;-62
2023/07/08 07:17:30;;;;;;;1.70;1.60;;;32.60;97.60;;;;;;5002737;28;20431;-60
2023/07/08 07:19:58;;;;;;;1.83;1.70;;;33.10;98.10;;;;;;5009940;28;20466;-61
2023/07/08 07:22:25;;;;;;;3.20;1.67;;;33.60;98.70;;;;;;5013679;28;20490;-60
2023/07/08 07:24:55;;;;;;;1.23;1.20;;;34.10;99.70;;;;;;5013962;28;20439;-60
2023/07/08 07:27:22;;;;;;;1.63;1.52;;;34.00;98.60;;;;;;5016199;28;20520;-60
2023/07/08 07:29:50;;;;;;;1.77;1.67;;;33.50;97.90;;;;;;5007628;28;20543;-60
2023/07/08 07:32:23;;;;;;;1.53;1.43;;;33.30;96.90;;;;;;5012556;28;20457;-59
2023/07/08 07:34:51;;;;;;;1.50;1.40;;;33.00;96.30;;;;;;5018214;28;20434;-60
2023/07/08 07:37:21;;;;;;;2.20;1.40;;;33.10;96.30;;;;;;5021371;28;20435;-60
2023/07/08 07:39:48;;;;;;;2.00;1.37;;;33.00;96.20;;;;;;5023647;28;20430;-60
2023/07/08 07:42:16;;;;;;;1.45;1.40;;;33.60;97.40;;;;;;5026857;28;20532;-60
2023/07/08 07:44:43;;;;;;;1.65;1.60;;;33.40;96.70;;;;;;5026994;28;20437;-60
2023/07/08 07:47:10;;;;;;;1.33;1.30;;;32.90;95.00;;;;;;5024239;28;20432;-60
2023/07/08 07:49:43;;;;;;;1.60;1.50;;;32.30;93.80;;;;;;5022167;28;20458;-60
2023/07/08 07:52:10;;;;;;;1.83;1.73;;;31.70;91.80;;;;;;5004040;28;20492;-59
2023/07/08 07:54:38;;;;;;;3.20;1.33;;;30.70;88.60;;;;;;5024236;28;20444;-59
2023/07/08 07:57:06;;;;;;;1.52;1.42;;;29.70;82.40;;;;;;5017566;28;20533;-59
2023/07/08 07:59:33;;;;;;;1.45;1.35;;;29.50;80.70;;;;;;5027917;28;21051;-59
2023/07/08 08:01:59;;;;;;;2.50;1.40;;;29.10;78.70;;;;;;5024067;28;20431;-59
2023/07/08 08:04:26;;;;;;;1.90;1.20;;;28.90;78.50;;;;;;5022891;28;20896;-59
2023/07/08 08:06:56;;;;;;;1.17;1.00;;;28.80;77.10;;;;;;5020786;28;20458;-59
2023/07/08 08:09:24;;;;;;;2.17;1.45;;;28.20;74.50;;;;;;5026130;28;20436;-59
2023/07/08 08:11:51;;;;;;;1.83;1.55;;;28.10;72.80;;;;;;5022834;28;20437;-59
2023/07/08 08:14:35;;;;;;;1.50;1.40;;;28.10;73.30;;;;;;5013955;28;20913;-59
2023/07/08 08:17:03;;;;;;;1.45;1.35;;;28.20;73.80;;;;;;5024689;28;20528;-60
2023/07/08 08:19:31;;;;;;;1.83;1.58;;;28.30;74.10;;;;;;5021166;28;20524;-60
2023/07/08 08:21:57;;;;;;;1.60;1.50;;;28.20;74.20;;;;;;5021843;28;20433;-60
2023/07/08 08:24:24;;;;;;;1.95;1.48;;;28.10;73.30;;;;;;5022616;28;20435;-60
2023/07/08 08:26:57;;;;;;;1.52;1.42;;;28.70;76.40;;;;;;5021021;28;20852;-60
2023/07/08 08:29:23;;;;;;;3.42;1.67;;;29.50;82.00;;;;;;5023410;28;20431;-60
2023/07/08 08:31:50;;;;;;;2.28;1.90;;;29.80;83.30;;;;;;5025374;28;20435;-60
2023/07/08 08:34:17;;;;;;;2.80;1.60;;;30.40;86.00;;;;;;5021624;28;20919;-60
2023/07/08 08:36:47;;;;;;;4.37;1.53;;;31.30;90.60;;;;;;5018172;28;20557;-60
2023/07/08 08:39:16;;;;;;;2.60;1.67;;;31.80;91.80;;;;;;5023012;28;20435;-60
2023/07/08 08:41:43;;;;;;;1.40;1.30;;;31.80;91.90;;;;;;5026640;28;20450;-60
2023/07/08 08:44:15;;;;;;;1.85;1.75;;;32.40;93.30;;;;;;5023728;28;20442;-60
2023/07/08 08:47:08;;;;;;;2.07;1.67;;;32.80;94.00;;;;;;5016650;28;20464;-61
2023/07/08 08:49:44;;;;;;;1.83;1.73;;;33.00;94.10;;;;;;5025189;28;20433;-60
2023/07/08 08:52:12;;;;;;;2.40;1.90;;;32.80;93.90;;;;;;5020627;28;20431;-60
2023/07/08 08:54:43;;;;;;;1.97;1.70;;;33.00;94.50;;;;;;5021991;28;20518;-60
2023/07/08 08:57:32;;;;;;;1.80;1.70;;;33.70;95.80;;;;;;5020173;28;20442;-60
2023/07/08 08:59:59;;;;;;;1.98;1.70;;;33.80;96.10;;;;;;5032489;28;20429;-60
2023/07/08 09:02:53;;;;;;;1.90;1.80;;;34.60;97.80;;;;;;5023052;28;20467;-61
2023/07/08 09:05:20;;;;;;;2.43;1.60;;;34.50;97.30;;;;;;5018704;28;20442;-60
2023/07/08 09:08:12;;;;;;;2.27;1.90;;;35.00;98.30;;;;;;4989489;28;20474;-61
2023/07/08 09:10:42;;;;;;;1.83;1.73;;;34.80;98.00;;;;;;5021638;28;20431;-59
2023/07/08 09:13:16;;;;;;;2.00;1.90;;;35.00;98.60;;;;;;5022143;28;20554;-59
2023/07/08 09:15:43;;;;;;;3.83;1.38;;;33.50;97.20;;;;;;5020831;28;20439;-60
2023/07/08 09:18:32;;;;;;;3.63;1.80;;;32.40;91.80;;;;;;5022599;28;20436;-60
2023/07/08 09:21:10;;;;;;;2.92;1.65;;;31.30;86.20;;;;;;5019019;28;20581;-60
2023/07/08 09:23:38;;;;;;;2.08;1.52;;;31.30;86.00;;;;;;5022976;28;20459;-60
2023/07/08 09:26:13;;;;;;;1.70;1.60;;;31.60;88.70;;;;;;5020612;28;20525;-60
2023/07/08 09:28:43;;;;;;;2.50;1.77;;;32.30;91.00;;;;;;5018027;28;20430;-60
2023/07/08 09:31:31;;;;;;;2.03;1.60;;;32.90;92.50;;;;;;5004462;28;20497;-60
2023/07/08 09:34:16;;;;;;;1.83;1.63;;;33.60;94.20;;;;;;5011198;28;20570;-60
2023/07/08 09:36:47;;;;;;;2.87;1.93;;;32.80;99.00;;;;;;5020547;28;20589;-61
2023/07/08 09:39:20;;;;;;;2.60;2.07;;;33.00;93.00;;;;;;5019975;28;20991;-61
2023/07/08 09:41:48;;;;;;;1.70;1.60;;;32.60;92.00;;;;;;5018080;28;20508;-61
2023/07/08 09:44:28;;;;;;;1.83;1.40;;;32.90;92.80;;;;;;5019456;28;20435;-61
2023/07/08 09:46:58;;;;;;;1.90;1.80;;;32.20;90.90;;;;;;5017539;28;20435;-60
2023/07/08 09:49:31;;;;;;;1.60;1.50;;;31.90;89.90;;;;;;5014654;28;20440;-61
2023/07/08 09:51:58;;;;;;;2.77;1.77;;;32.00;90.40;;;;;;5007793;28;20523;-60
2023/07/08 09:54:32;;;;;;;2.75;2.03;;;31.80;90.00;;;;;;5010400;28;20431;-61
2023/07/08 09:57:11;;;;;;;1.70;1.60;;;32.00;90.80;;;;;;5010581;28;20445;-60
2023/07/08 09:59:47;;;;;;;1.58;1.50;;;32.50;92.70;;;;;;5016963;28;20900;-60
2023/07/08 10:02:29;;;;;;;1.70;1.50;;;32.80;92.50;;;;;;5011043;28;20449;-61
2023/07/08 10:04:59;;;;;;;1.97;1.67;;;33.00;92.90;;;;;;5005678;28;20436;-61
2023/07/08 10:07:31;;;;;;;1.65;1.55;;;33.40;94.20;;;;;;5002571;28;20423;-61
2023/07/08 10:10:02;;;;;;;2.20;1.80;;;33.30;94.70;;;;;;5013592;28;20485;-58
2023/07/08 10:12:31;;;;;;;1.83;1.60;;;33.50;94.70;;;;;;5026414;28;20509;-58
2023/07/08 10:15:14;;;;;;;3.75;1.88;;;33.50;94.30;;;;;;5022192;28;21003;-59
2023/07/08 10:17:41;;;;;;;2.75;1.60;;;33.40;93.80;;;;;;5000739;28;20807;-59
2023/07/08 10:20:12;;;;;;;1.45;1.35;;;33.40;93.80;;;;;;5016780;28;20436;-59
2023/07/08 10:23:07;;;;;;;4.20;1.85;;;33.70;94.40;;;;;;5023827;28;20496;-60
2023/07/08 10:25:40;;;;;;;2.13;1.40;;;34.50;96.60;;;;;;5018139;28;20907;-60
2023/07/08 10:28:31;;;;;;;4.53;2.13;;;34.90;97.20;;;;;;5027625;28;20430;-60
2023/07/08 10:31:27;;;;;;;2.05;1.85;;;34.40;96.50;;;;;;5022706;28;20506;-59
2023/07/08 10:34:03;;;;;;;4.50;1.77;;;33.80;95.10;;;;;;5007218;28;20962;-59
2023/07/08 10:36:35;;;;;;;1.85;1.70;;;33.80;94.70;;;;;;5024322;28;20431;-59
2023/07/08 10:39:30;;;;;;;1.60;1.50;;;33.20;93.40;;;;;;5028390;28;20442;-59
2023/07/08 10:42:12;;;;;;;1.83;1.70;;;34.20;95.50;;;;;;5028409;28;20427;-59
2023/07/08 10:45:06;;;;;;;1.73;1.63;;;34.60;96.90;;;;;;5030341;28;20908;-60
2023/07/08 10:47:36;;;;;;;1.48;1.38;;;35.00;97.70;;;;;;4976644;28;20489;-60
2023/07/08 10:50:33;;;;;;;77.63;66.55;;;35.70;99.20;;;;;;5026433;28;20429;-60
2023/07/08 10:53:27;;;;;;;94.50;86.57;;;35.90;99.90;;;;;;5018449;28;20436;-60
2023/07/08 10:56:16;;;;;;;1267.03;999.90;;;35.30;99.10;;;;;;5023303;28;20474;-59
2023/07/08 10:58:59;;;;;;;1302.07;999.90;;;35.10;98.20;;;;;;5025860;28;20435;-60
2023/07/08 11:01:55;;;;;;;1310.60;999.90;;;34.60;96.90;;;;;;5016271;28;20528;-60
2023/07/08 11:04:41;;;;;;;1102.55;987.40;;;34.30;95.80;;;;;;4984728;28;21521;-60
2023/07/08 11:07:21;;;;;;;1115.40;998.13;;;34.10;95.60;;;;;;5023954;28;20521;-60
2023/07/08 11:09:56;;;;;;;1129.25;999.90;;;33.70;94.60;;;;;;5016731;28;21099;-59
2023/07/08 11:12:38;;;;;;;1130.73;999.90;;;33.80;95.00;;;;;;5026295;28;21070;-59
2023/07/08 11:15:14;;;;;;;1125.85;999.90;;;33.50;93.90;;;;;;5001915;28;20477;-59
2023/07/08 11:18:04;;;;;;;1148.17;999.90;;;33.70;94.70;;;;;;5025457;28;20903;-60
2023/07/08 11:20:44;;;;;;;1117.72;999.90;;;33.70;94.60;;;;;;5023159;28;20526;-59
2023/07/08 11:23:26;;;;;;;1151.15;999.90;;;33.60;99.90;;;;;;5008852;28;20432;-59
2023/07/08 11:26:18;;;;;;;1158.87;999.90;;;34.20;95.50;;;;;;5021255;28;20430;-59
2023/07/08 11:28:45;;;;;;;1165.38;999.90;;;34.40;96.60;;;;;;5016277;28;20481;-59
2023/07/08 11:31:13;;;;;;;1176.93;999.90;;;35.00;97.90;;;;;;5028205;28;20439;-59
2023/07/08 11:33:44;;;;;;;1197.57;999.90;;;35.30;98.50;;;;;;5013232;28;20532;-60
2023/07/08 11:36:13;;;;;;;1197.60;999.90;;;35.30;98.30;;;;;;5027016;28;20437;-59
2023/07/08 11:38:55;;;;;;;1171.95;999.90;;;35.20;98.40;;;;;;5025640;28;20435;-59
2023/07/08 11:41:31;;;;;;;1185.18;999.90;;;35.10;97.90;;;;;;5000814;28;20480;-59
2023/07/08 11:44:04;;;;;;;1239.30;999.90;;;34.60;96.80;;;;;;5021659;28;20467;-61
2023/07/08 11:46:34;;;;;;;1175.97;999.90;;;34.60;96.70;;;;;;5021246;28;20433;-60
2023/07/08 11:49:13;;;;;;;1185.57;999.90;;;34.40;96.30;;;;;;5024983;28;20504;-60
2023/07/08 11:51:46;;;;;;;1234.20;999.90;;;34.90;97.60;;;;;;5023571;28;20439;-59
2023/07/08 11:54:14;;;;;;;1194.32;999.90;;;35.10;97.60;;;;;;5007668;28;20426;-60
2023/07/08 11:56:56;;;;;;;1274.23;999.90;;;35.30;98.50;;;;;;5021000;28;20869;-59
2023/07/08 11:59:26;;;;;;;1250.43;999.90;;;35.00;97.90;;;;;;5021592;28;20496;-59
2023/07/08 12:02:16;;;;;;;1302.93;999.90;;;34.60;96.70;;;;;;5020188;28;20439;-60
2023/07/08 12:05:40;;;;;;;1114.35;999.90;;;34.90;97.50;;;;;;5025138;28;20505;-59
2023/07/08 12:08:15;;;;;;;1143.68;999.90;;;35.00;97.20;;;;;;4987866;28;20833;-61
2023/07/08 12:10:51;;;;;;;1131.30;999.90;;;35.00;97.50;;;;;;4983239;28;20480;-60
2023/07/08 12:13:23;;;;;;;1190.93;999.90;;;35.20;97.80;;;;;;4984052;28;20442;-59
2023/07/08 12:15:56;;;;;;;1211.20;999.90;;;35.20;97.90;;;;;;4974394;28;20478;-60
2023/07/08 12:18:28;;;;;;;1179.72;999.90;;;35.20;98.30;;;;;;4975721;28;20453;-59
2023/07/08 12:20:59;;;;;;;1087.18;972.75;;;35.60;98.90;;;;;;4974251;28;20972;-60
2023/07/08 12:23:27;;;;;;;1049.43;937.45;;;35.60;99.30;;;;;;4978646;28;20539;-61
2023/07/08 12:25:57;;;;;;;1131.70;999.90;;;35.50;98.90;;;;;;4979064;28;20443;-60
2023/07/08 12:28:25;;;;;;;1156.50;999.90;;;35.40;98.40;;;;;;4978927;28;20425;-61
2023/07/08 12:30:54;;;;;;;1126.68;999.90;;;36.00;99.50;;;;;;4980368;28;20447;-61
2023/07/08 12:33:25;;;;;;;1148.88;999.90;;;36.10;99.90;;;;;;4977399;28;20440;-61
2023/07/08 12:35:53;;;;;;;1139.22;999.90;;;36.00;99.90;;;;;;4979189;28;20438;-61
2023/07/08 12:38:33;;;;;;;1188.90;999.90;;;35.50;99.10;;;;;;4992054;28;20433;-61
2023/07/08 12:41:05;;;;;;;1168.55;999.90;;;35.50;98.20;;;;;;5020137;28;21774;-60
2023/07/08 12:43:31;;;;;;;1133.78;999.90;;;35.50;98.90;;;;;;4998058;28;20426;-61
2023/07/08 12:46:03;;;;;;;1146.77;999.90;;;35.30;97.50;;;;;;5019319;28;20995;-61
2023/07/08 12:48:40;;;;;;;1198.43;999.90;;;35.10;97.10;;;;;;5016273;28;20526;-61
2023/07/08 12:51:13;;;;;;;1210.65;999.90;;;35.00;96.90;;;;;;4988174;28;20513;-61
2023/07/08 12:53:41;;;;;;;1167.03;999.90;;;35.00;96.50;;;;;;5015652;28;20438;-59
2023/07/08 12:56:12;;;;;;;1118.50;999.90;;;34.50;95.20;;;;;;5015622;28;20443;-60
2023/07/08 12:58:45;;;;;;;1146.68;999.90;;;34.70;95.70;;;;;;5013291;28;20951;-60
2023/07/08 13:01:25;;;;;;;1157.53;999.90;;;35.20;97.00;;;;;;4996466;28;20450;-60